Time;durP1;ratioP1;P1;durP2;ratioP2;P2;SDS_P1;SDS_P2;PMS_P1;PMS_P2;Temp;Humidity;BMP_temperature;BMP_pressure;BME280_temperature;BME280_humidity;BME280_pressure;Samples;Min_cycle;Max_cycle;Signal;HPM_P1;HPM_P2
2021/06/07 00:01:47;;;;;;;62.85;38.35;;;;;;;;;;10162546;28;20196;-68
2021/06/07 00:06:44;;;;;;;57.28;36.30;;;;;;;;;;10149423;28;20050;-69
2021/06/07 00:11:41;;;;;;;55.20;36.80;;;;;;;;;;10149726;28;20500;-67
2021/06/07 00:16:37;;;;;;;66.43;40.28;;;;;;;;;;10145266;28;20042;-67
2021/06/07 00:21:35;;;;;;;76.65;46.45;;;;;;;;;;10164414;28;20072;-68
2021/06/07 00:26:32;;;;;;;71.15;42.67;;;;;;;;;;10147936;28;20049;-67
2021/06/07 00:31:29;;;;;;;66.82;39.72;;;;;;;;;;10145305;28;20101;-68
2021/06/07 00:36:27;;;;;;;69.35;39.55;;;;;;;;;;10164532;28;20109;-68
2021/06/07 00:41:24;;;;;;;61.70;38.85;;;;;;;;;;10139989;28;20078;-68
2021/06/07 00:46:20;;;;;;;55.90;36.58;;;;;;;;;;10151722;28;20110;-68
2021/06/07 00:51:16;;;;;;;62.08;39.30;;;;;;;;;;10154334;28;20054;-68
2021/06/07 00:56:13;;;;;;;56.53;36.28;;;;;;;;;;10149304;28;20085;-67
2021/06/07 01:01:10;;;;;;;56.65;37.88;;;;;;;;;;10153562;28;20461;-68
2021/06/07 01:06:07;;;;;;;68.07;41.67;;;;;;;;;;11207905;23;20057;-67
2021/06/07 01:11:04;;;;;;;61.58;39.38;;;;;;;;;;10262877;28;20124;-67
2021/06/07 01:16:00;;;;;;;61.42;43.15;;;;;;;;;;10262982;28;20071;-66
2021/06/07 01:20:59;;;;;;;76.45;44.60;;;;;;;;;;10277069;28;20064;-67
2021/06/07 01:25:57;;;;;;;71.68;44.92;;;;;;;;;;10271322;28;20086;-66
2021/06/07 01:30:54;;;;;;;75.32;45.45;;;;;;;;;;10278512;28;20621;-66
2021/06/07 01:35:51;;;;;;;70.15;42.88;;;;;;;;;;10284522;28;20472;-67
2021/06/07 01:40:49;;;;;;;76.13;45.65;;;;;;;;;;10278388;28;20148;-66
2021/06/07 01:45:46;;;;;;;79.85;45.47;;;;;;;;;;10264480;28;20076;-67
2021/06/07 01:50:43;;;;;;;74.57;46.83;;;;;;;;;;10259672;28;20129;-67
2021/06/07 01:55:41;;;;;;;82.82;50.40;;;;;;;;;;10268276;28;20056;-66
2021/06/07 02:00:45;;;;;;;75.47;45.20;;;;;;;;;;10265181;28;20052;-67
2021/06/07 02:05:42;;;;;;;77.28;49.80;;;;;;;;;;10256695;28;20049;-66
2021/06/07 02:10:40;;;;;;;66.40;44.83;;;;;;;;;;10271551;28;20332;-67
2021/06/07 02:15:36;;;;;;;68.03;41.72;;;;;;;;;;10263982;28;20120;-67
2021/06/07 02:20:34;;;;;;;65.43;44.03;;;;;;;;;;10258540;28;20052;-66
2021/06/07 02:25:30;;;;;;;66.03;45.28;;;;;;;;;;10266205;28;20091;-67
2021/06/07 02:30:28;;;;;;;67.00;41.45;;;;;;;;;;10281202;28;20473;-66
2021/06/07 02:35:24;;;;;;;61.17;39.45;;;;;;;;;;10282119;28;20053;-67
2021/06/07 02:40:22;;;;;;;67.28;40.78;;;;;;;;;;10260237;28;20072;-66
2021/06/07 02:45:19;;;;;;;73.70;47.15;;;;;;;;;;10265537;28;20430;-66
2021/06/07 02:50:18;;;;;;;63.28;42.72;;;;;;;;;;10269231;28;20085;-66
2021/06/07 02:55:19;;;;;;;68.38;44.70;;;;;;;;;;10280186;28;20075;-66
2021/06/07 03:00:17;;;;;;;69.82;44.88;;;;;;;;;;10279014;28;20098;-67
2021/06/07 03:05:14;;;;;;;68.95;42.28;;;;;;;;;;10272958;28;20059;-67
2021/06/07 03:10:10;;;;;;;74.97;43.70;;;;;;;;;;10286235;28;20129;-66
2021/06/07 03:15:07;;;;;;;69.95;44.03;;;;;;;;;;10279676;28;20544;-67
2021/06/07 03:20:05;;;;;;;75.93;44.45;;;;;;;;;;10269594;28;20462;-67
2021/06/07 03:25:02;;;;;;;63.72;42.15;;;;;;;;;;10260423;28;20152;-66
2021/06/07 03:29:58;;;;;;;70.05;42.00;;;;;;;;;;10287789;28;20076;-67
2021/06/07 03:34:54;;;;;;;63.80;40.83;;;;;;;;;;10282974;28;20559;-67
2021/06/07 03:39:51;;;;;;;63.58;39.55;;;;;;;;;;10282450;28;20064;-67
2021/06/07 03:44:47;;;;;;;63.53;40.47;;;;;;;;;;10267403;28;20072;-66
2021/06/07 03:49:43;;;;;;;66.03;39.30;;;;;;;;;;10282565;28;20138;-67
2021/06/07 03:54:39;;;;;;;63.17;41.40;;;;;;;;;;10277437;28;20490;-67
2021/06/07 03:59:36;;;;;;;59.55;40.03;;;;;;;;;;10285032;28;20418;-67
2021/06/07 04:04:32;;;;;;;58.38;39.83;;;;;;;;;;10256879;28;20074;-67
2021/06/07 04:09:29;;;;;;;80.10;43.60;;;;;;;;;;10262442;28;20136;-67
2021/06/07 04:14:25;;;;;;;61.53;46.13;;;;;;;;;;10292814;28;20380;-67
2021/06/07 04:19:21;;;;;;;75.75;46.00;;;;;;;;;;10265363;28;20079;-66
2021/06/07 04:24:17;;;;;;;87.75;52.85;;;;;;;;;;10276665;28;20040;-66
2021/06/07 04:29:14;;;;;;;83.32;48.97;;;;;;;;;;10276458;28;20079;-67
2021/06/07 04:34:10;;;;;;;86.57;47.70;;;;;;;;;;10275532;28;20128;-67
2021/06/07 04:39:07;;;;;;;99.43;48.83;;;;;;;;;;10280105;28;20076;-66
2021/06/07 04:44:03;;;;;;;93.05;47.35;;;;;;;;;;10263561;28;20083;-67
2021/06/07 04:49:00;;;;;;;79.75;45.00;;;;;;;;;;10273229;28;20072;-66
2021/06/07 04:53:56;;;;;;;88.97;47.92;;;;;;;;;;10276579;28;20133;-67
2021/06/07 04:58:52;;;;;;;70.45;45.50;;;;;;;;;;10263576;28;20080;-67
2021/06/07 05:03:49;;;;;;;85.63;46.42;;;;;;;;;;10267881;28;20068;-67
2021/06/07 05:08:45;;;;;;;78.47;43.63;;;;;;;;;;10276852;28;20068;-67
2021/06/07 05:13:41;;;;;;;80.05;45.22;;;;;;;;;;10287309;28;20132;-67
2021/06/07 05:18:38;;;;;;;69.20;40.53;;;;;;;;;;10275097;28;20414;-67
2021/06/07 05:23:35;;;;;;;73.78;41.90;;;;;;;;;;10265044;28;20128;-67
2021/06/07 05:28:31;;;;;;;69.50;42.47;;;;;;;;;;10276582;28;20629;-67
2021/06/07 05:33:27;;;;;;;80.57;44.20;;;;;;;;;;10285521;28;20095;-67
2021/06/07 05:38:24;;;;;;;67.43;40.97;;;;;;;;;;10280396;28;20084;-66
2021/06/07 05:43:23;;;;;;;59.00;38.33;;;;;;;;;;10278095;28;20067;-67
2021/06/07 05:48:19;;;;;;;54.85;38.42;;;;;;;;;;10267166;28;20473;-66
2021/06/07 05:53:20;;;;;;;61.20;40.75;;;;;;;;;;10281403;28;20580;-67
2021/06/07 05:58:18;;;;;;;58.97;37.80;;;;;;;;;;10273126;28;20044;-67
2021/06/07 06:03:14;;;;;;;62.90;39.00;;;;;;;;;;10261981;28;20133;-67
2021/06/07 06:08:11;;;;;;;66.60;40.63;;;;;;;;;;10266769;28;20476;-66
2021/06/07 06:13:07;;;;;;;70.35;43.30;;;;;;;;;;10273178;28;20093;-67
2021/06/07 06:18:04;;;;;;;64.28;41.50;;;;;;;;;;10272325;28;20095;-67
2021/06/07 06:23:00;;;;;;;55.40;37.42;;;;;;;;;;10270903;28;20144;-67
2021/06/07 06:27:58;;;;;;;60.95;39.53;;;;;;;;;;10278471;28;20052;-67
2021/06/07 06:32:55;;;;;;;58.85;40.22;;;;;;;;;;10287176;28;20091;-67
2021/06/07 06:37:52;;;;;;;63.63;40.25;;;;;;;;;;10284155;28;20049;-67
2021/06/07 06:42:50;;;;;;;56.45;39.35;;;;;;;;;;10274531;28;20759;-66
2021/06/07 06:47:46;;;;;;;60.42;41.28;;;;;;;;;;10270913;28;20498;-67
2021/06/07 06:52:42;;;;;;;59.17;39.05;;;;;;;;;;10282327;28;20140;-67
2021/06/07 06:57:39;;;;;;;63.17;41.42;;;;;;;;;;10282557;28;20139;-67
2021/06/07 07:02:35;;;;;;;58.60;38.00;;;;;;;;;;10274638;28;20413;-67
2021/06/07 07:07:31;;;;;;;61.30;41.17;;;;;;;;;;10282211;28;20051;-67
2021/06/07 07:12:28;;;;;;;73.40;43.50;;;;;;;;;;10293024;28;20044;-67
2021/06/07 07:17:24;;;;;;;56.05;38.30;;;;;;;;;;10290190;28;20048;-67
2021/06/07 07:22:21;;;;;;;58.42;38.08;;;;;;;;;;10273029;28;20053;-67
2021/06/07 07:27:18;;;;;;;55.55;36.80;;;;;;;;;;10284966;28;20084;-67
2021/06/07 07:32:15;;;;;;;54.40;33.47;;;;;;;;;;10286230;28;20395;-67
2021/06/07 07:37:16;;;;;;;53.92;37.97;;;;;;;;;;10281164;28;20107;-67
2021/06/07 07:42:12;;;;;;;53.40;36.45;;;;;;;;;;10267971;28;20110;-67
2021/06/07 07:47:08;;;;;;;50.85;34.25;;;;;;;;;;10265085;28;20509;-67
2021/06/07 07:52:05;;;;;;;52.65;35.08;;;;;;;;;;10274974;28;20136;-66
2021/06/07 07:57:02;;;;;;;47.47;32.83;;;;;;;;;;10271527;28;20480;-67
2021/06/07 08:01:59;;;;;;;47.88;34.78;;;;;;;;;;10277392;28;20052;-67
2021/06/07 08:06:55;;;;;;;47.08;33.65;;;;;;;;;;10270757;28;20135;-67
2021/06/07 08:11:51;;;;;;;45.90;31.63;;;;;;;;;;10283859;28;20088;-67
2021/06/07 08:16:48;;;;;;;46.22;32.35;;;;;;;;;;10281075;28;20067;-67
2021/06/07 08:21:44;;;;;;;45.25;32.47;;;;;;;;;;10277246;28;20494;-67
2021/06/07 08:26:40;;;;;;;38.78;29.75;;;;;;;;;;10273039;28;20045;-66
2021/06/07 08:31:37;;;;;;;38.50;29.17;;;;;;;;;;10270505;28;20118;-67
2021/06/07 08:36:34;;;;;;;41.90;31.33;;;;;;;;;;10281245;28;20044;-67
2021/06/07 08:41:33;;;;;;;36.78;30.27;;;;;;;;;;10266783;28;20053;-67
2021/06/07 08:46:49;;;;;;;39.88;27.45;;;;;;;;;;10273645;28;20136;-67
2021/06/07 08:51:46;;;;;;;39.90;29.73;;;;;;;;;;10278148;28;20037;-67
2021/06/07 08:56:45;;;;;;;41.17;29.73;;;;;;;;;;10273854;28;20083;-67
2021/06/07 09:01:41;;;;;;;42.33;32.97;;;;;;;;;;10278970;28;20075;-66
2021/06/07 09:06:42;;;;;;;42.50;32.97;;;;;;;;;;10271179;28;20051;-67
2021/06/07 09:11:47;;;;;;;40.80;30.98;;;;;;;;;;10282796;28;20692;-67
2021/06/07 09:16:43;;;;;;;46.65;33.40;;;;;;;;;;10263903;28;20052;-67
2021/06/07 09:21:40;;;;;;;40.88;34.35;;;;;;;;;;10261503;28;20048;-67
2021/06/07 09:26:38;;;;;;;54.22;41.72;;;;;;;;;;10266778;28;20044;-67
2021/06/07 09:31:34;;;;;;;47.85;38.85;;;;;;;;;;10276127;28;20040;-67
2021/06/07 09:36:32;;;;;;;48.22;37.40;;;;;;;;;;10280393;28;20068;-67
2021/06/07 09:41:30;;;;;;;43.35;33.38;;;;;;;;;;10267244;28;20472;-67
2021/06/07 09:46:29;;;;;;;44.53;34.35;;;;;;;;;;10269211;28;20037;-67
2021/06/07 09:51:25;;;;;;;46.70;37.03;;;;;;;;;;10267824;28;20391;-67
2021/06/07 09:56:22;;;;;;;42.65;36.17;;;;;;;;;;10277618;28;20117;-67
2021/06/07 10:01:27;;;;;;;45.30;36.97;;;;;;;;;;10270722;28;20064;-66
2021/06/07 10:06:24;;;;;;;52.58;42.92;;;;;;;;;;10262884;28;20064;-67
2021/06/07 10:11:22;;;;;;;46.03;36.60;;;;;;;;;;10275918;28;20624;-67
2021/06/07 10:16:20;;;;;;;43.33;36.85;;;;;;;;;;10272420;28;20053;-67
2021/06/07 10:21:17;;;;;;;45.28;37.10;;;;;;;;;;10274665;28;20466;-67
2021/06/07 10:26:13;;;;;;;43.38;34.95;;;;;;;;;;10266389;28;20053;-67
2021/06/07 10:31:17;;;;;;;41.80;34.15;;;;;;;;;;10286833;28;20056;-67
2021/06/07 10:36:19;;;;;;;39.33;34.42;;;;;;;;;;10284364;28;20048;-67
2021/06/07 10:41:23;;;;;;;41.63;31.87;;;;;;;;;;10270122;28;20464;-67
2021/06/07 10:46:23;;;;;;;43.90;36.35;;;;;;;;;;10264463;28;20044;-67
2021/06/07 10:51:24;;;;;;;40.45;34.40;;;;;;;;;;10281874;28;20446;-67
2021/06/07 10:56:29;;;;;;;41.60;33.15;;;;;;;;;;10272646;28;20069;-67
2021/06/07 11:01:44;;;;;;;30.45;26.45;;;;;;;;;;10273831;28;20549;-67
2021/06/07 11:06:55;;;;;;;32.50;26.67;;;;;;;;;;10262442;28;20044;-67
2021/06/07 11:11:51;;;;;;;28.67;24.00;;;;;;;;;;10278288;28;20115;-67
2021/06/07 11:16:47;;;;;;;31.48;25.73;;;;;;;;;;10277234;28;20125;-67
2021/06/07 11:21:46;;;;;;;31.67;25.73;;;;;;;;;;10271288;28;20498;-66
2021/06/07 11:26:43;;;;;;;30.00;24.70;;;;;;;;;;10281875;28;20037;-67
2021/06/07 11:31:41;;;;;;;31.52;24.08;;;;;;;;;;10282918;28;20107;-67
2021/06/07 11:36:38;;;;;;;27.52;23.20;;;;;;;;;;10284583;28;20040;-67
2021/06/07 11:42:00;;;;;;;25.77;20.95;;;;;;;;;;10279996;28;20143;-67
2021/06/07 11:46:57;;;;;;;;;;;;;;;;;;10281041;28;20068;-66
2021/06/07 11:52:01;;;;;;;23.30;20.40;;;;;;;;;;10282299;28;19976;-66
2021/06/07 11:56:58;;;;;;;24.55;20.45;;;;;;;;;;10282779;28;20098;-67
2021/06/07 12:01:55;;;;;;;27.67;22.05;;;;;;;;;;10289498;28;20080;-66
2021/06/07 12:06:58;;;;;;;26.42;20.65;;;;;;;;;;10281344;28;20422;-67
2021/06/07 12:11:55;;;;;;;22.23;19.50;;;;;;;;;;10281011;28;20110;-67
2021/06/07 12:16:52;;;;;;;23.55;19.63;;;;;;;;;;10279503;28;20085;-67
2021/06/07 12:21:48;;;;;;;24.30;20.77;;;;;;;;;;10276997;28;20049;-67
2021/06/07 12:32:03;;;;;;;23.00;17.45;;;;;;;;;;10282381;28;20131;-67
2021/06/07 12:36:59;;;;;;;27.52;21.30;;;;;;;;;;10264051;28;20119;-67
2021/06/07 12:41:55;;;;;;;25.77;19.58;;;;;;;;;;10291372;28;20094;-67
2021/06/07 12:46:55;;;;;;;27.10;21.85;;;;;;;;;;10283569;28;20148;-67
2021/06/07 12:51:57;;;;;;;25.30;20.02;;;;;;;;;;10278891;28;20143;-67
2021/06/07 12:56:56;;;;;;;29.10;20.70;;;;;;;;;;10273637;28;20136;-67
2021/06/07 13:01:54;;;;;;;25.35;21.08;;;;;;;;;;10268822;28;20462;-67
2021/06/07 13:06:50;;;;;;;24.25;18.70;;;;;;;;;;10265087;28;20132;-67
2021/06/07 13:11:51;;;;;;;25.65;18.58;;;;;;;;;;10273676;28;20087;-67
2021/06/07 13:16:47;;;;;;;27.20;20.27;;;;;;;;;;10271851;28;20125;-67
2021/06/07 13:21:49;;;;;;;26.55;19.52;;;;;;;;;;10289705;28;20131;-67
2021/06/07 13:26:52;;;;;;;30.20;22.65;;;;;;;;;;10274814;28;20470;-67
2021/06/07 13:32:07;;;;;;;27.23;22.20;;;;;;;;;;10273219;28;20518;-67
2021/06/07 13:37:08;;;;;;;26.60;21.45;;;;;;;;;;10285084;28;20657;-67
2021/06/07 13:42:06;;;;;;;24.65;19.52;;;;;;;;;;10282038;28;20056;-67
2021/06/07 13:47:04;;;;;;;29.77;22.90;;;;;;;;;;10270812;28;20049;-67
2021/06/07 13:52:11;;;;;;;28.70;22.40;;;;;;;;;;10279565;28;20076;-66
2021/06/07 13:57:09;;;;;;;26.33;21.15;;;;;;;;;;10276356;28;20080;-67
2021/06/07 14:02:06;;;;;;;28.10;21.75;;;;;;;;;;10276005;28;20132;-67
2021/06/07 14:07:03;;;;;;;31.50;22.33;;;;;;;;;;10274697;28;20580;-67
2021/06/07 14:11:59;;;;;;;30.63;22.67;;;;;;;;;;10280729;28;20135;-67
2021/06/07 14:16:55;;;;;;;30.52;22.65;;;;;;;;;;10279013;28;20414;-66
2021/06/07 14:27:07;;;;;;;26.52;19.35;;;;;;;;;;10274817;28;20131;-67
2021/06/07 14:32:04;;;;;;;27.52;21.70;;;;;;;;;;10266813;28;20068;-66
2021/06/07 14:37:01;;;;;;;26.83;20.77;;;;;;;;;;10280051;28;20052;-66
2021/06/07 14:41:57;;;;;;;27.45;21.95;;;;;;;;;;10283988;28;20072;-66
2021/06/07 14:46:57;;;;;;;25.60;19.95;;;;;;;;;;10272933;28;20079;-67
2021/06/07 14:51:53;;;;;;;28.48;21.85;;;;;;;;;;10268383;28;20060;-66
2021/06/07 14:56:53;;;;;;;26.10;21.80;;;;;;;;;;10286453;28;20065;-67
2021/06/07 15:01:50;;;;;;;27.52;20.33;;;;;;;;;;10265362;28;20045;-67
2021/06/07 15:06:46;;;;;;;30.05;26.10;;;;;;;;;;10286079;28;20079;-67
2021/06/07 15:11:43;;;;;;;38.10;28.05;;;;;;;;;;10272070;28;20053;-66
2021/06/07 15:16:39;;;;;;;42.60;33.85;;;;;;;;;;10279833;28;20048;-67
2021/06/07 15:21:36;;;;;;;42.13;31.15;;;;;;;;;;10282813;28;20107;-67
2021/06/07 15:26:33;;;;;;;41.38;32.53;;;;;;;;;;10270053;28;20462;-67
2021/06/07 15:31:30;;;;;;;38.40;30.33;;;;;;;;;;10286954;28;20049;-67
2021/06/07 15:36:27;;;;;;;35.33;27.58;;;;;;;;;;10292788;28;20068;-67
2021/06/07 15:41:23;;;;;;;35.03;29.08;;;;;;;;;;10293025;28;20033;-67
2021/06/07 15:46:22;;;;;;;37.72;31.08;;;;;;;;;;10293151;28;20064;-67
2021/06/07 15:51:20;;;;;;;35.10;28.67;;;;;;;;;;10284802;28;20090;-66
2021/06/07 15:56:16;;;;;;;31.75;27.60;;;;;;;;;;10281817;28;20564;-67
2021/06/07 16:01:14;;;;;;;31.05;26.65;;;;;;;;;;10279523;28;20045;-67
2021/06/07 16:06:12;;;;;;;34.60;30.85;;;;;;;;;;10282217;28;20055;-67
2021/06/07 16:11:08;;;;;;;32.25;28.95;;;;;;;;;;10288497;28;20036;-67
2021/06/07 16:16:11;;;;;;;33.03;29.50;;;;;;;;;;10281358;28;20063;-67
2021/06/07 16:21:19;;;;;;;33.80;29.05;;;;;;;;;;10281545;28;20120;-67
2021/06/07 16:26:21;;;;;;;34.17;30.67;;;;;;;;;;10276941;28;20045;-67
2021/06/07 16:31:19;;;;;;;31.80;28.35;;;;;;;;;;10284268;28;20037;-67
2021/06/07 16:36:16;;;;;;;34.30;28.83;;;;;;;;;;10276378;28;20041;-67
2021/06/07 16:41:13;;;;;;;30.00;26.52;;;;;;;;;;10281362;28;20088;-67
2021/06/07 16:46:09;;;;;;;30.77;26.80;;;;;;;;;;10281273;28;20449;-67
2021/06/07 16:51:05;;;;;;;31.08;27.67;;;;;;;;;;10281614;28;20039;-67
2021/06/07 16:56:04;;;;;;;28.40;25.48;;;;;;;;;;10275597;28;20036;-67
2021/06/07 17:01:04;;;;;;;29.67;26.00;;;;;;;;;;10276364;28;20581;-68
2021/06/07 17:06:01;;;;;;;27.98;23.92;;;;;;;;;;10285069;28;20048;-67
2021/06/07 17:10:58;;;;;;;27.50;24.65;;;;;;;;;;10278914;28;20064;-67
2021/06/07 17:15:54;;;;;;;26.17;23.40;;;;;;;;;;10267329;28;20543;-67
2021/06/07 17:20:52;;;;;;;27.00;23.13;;;;;;;;;;10269967;28;20059;-67
2021/06/07 17:25:50;;;;;;;29.08;24.95;;;;;;;;;;10287504;28;20072;-67
2021/06/07 17:30:46;;;;;;;31.25;25.33;;;;;;;;;;10275977;28;20050;-67
2021/06/07 17:35:43;;;;;;;24.42;21.88;;;;;;;;;;10283302;28;20075;-67
2021/06/07 17:40:40;;;;;;;25.10;22.50;;;;;;;;;;10285882;28;20111;-67
2021/06/07 17:45:37;;;;;;;25.67;23.10;;;;;;;;;;10277822;28;20487;-67
2021/06/07 17:50:34;;;;;;;24.25;21.65;;;;;;;;;;10284703;28;20065;-66
2021/06/07 17:55:30;;;;;;;23.98;20.80;;;;;;;;;;10267531;28;20120;-67
2021/06/07 18:00:28;;;;;;;21.60;18.63;;;;;;;;;;10277826;28;20072;-67
2021/06/07 18:05:25;;;;;;;21.60;19.33;;;;;;;;;;10270045;28;20078;-67
2021/06/07 18:10:21;;;;;;;23.70;20.17;;;;;;;;;;10282384;28;20098;-67
2021/06/07 18:15:19;;;;;;;19.00;16.65;;;;;;;;;;10281385;28;20586;-67
2021/06/07 18:20:16;;;;;;;20.27;15.55;;;;;;;;;;10285395;28;20041;-67
2021/06/07 18:25:13;;;;;;;21.23;15.63;;;;;;;;;;10276807;28;20708;-66
2021/06/07 18:30:10;;;;;;;19.80;15.23;;;;;;;;;;10296874;28;20132;-67
2021/06/07 18:35:06;;;;;;;18.73;14.75;;;;;;;;;;10283147;28;20068;-67
2021/06/07 18:40:03;;;;;;;20.13;14.02;;;;;;;;;;10287157;28;20045;-66
2021/06/07 18:45:00;;;;;;;22.42;14.95;;;;;;;;;;10290440;28;20127;-66
2021/06/07 18:49:56;;;;;;;18.98;14.95;;;;;;;;;;10271849;28;20528;-66
2021/06/07 18:54:53;;;;;;;15.40;13.73;;;;;;;;;;10284594;28;20045;-66
2021/06/07 18:59:49;;;;;;;19.73;13.38;;;;;;;;;;10270088;28;20132;-67
2021/06/07 19:04:45;;;;;;;21.92;13.40;;;;;;;;;;10283507;28;20041;-66
2021/06/07 19:09:45;;;;;;;18.83;13.77;;;;;;;;;;10281673;28;20546;-66
2021/06/07 19:14:41;;;;;;;14.63;11.07;;;;;;;;;;10275567;28;20485;-67
2021/06/07 19:19:38;;;;;;;14.63;10.90;;;;;;;;;;10276323;28;20633;-67
2021/06/07 19:24:34;;;;;;;16.23;12.07;;;;;;;;;;10267290;28;20052;-67
2021/06/07 19:29:30;;;;;;;18.23;11.70;;;;;;;;;;10282373;28;20106;-67
2021/06/07 19:34:27;;;;;;;17.55;11.50;;;;;;;;;;10279923;28;20071;-67
2021/06/07 19:39:23;;;;;;;15.60;11.65;;;;;;;;;;10271141;28;20137;-67
2021/06/07 19:44:20;;;;;;;14.65;11.02;;;;;;;;;;10279722;28;20094;-67
2021/06/07 19:49:16;;;;;;;13.18;11.75;;;;;;;;;;10284052;28;20759;-67
2021/06/07 19:54:12;;;;;;;16.23;11.23;;;;;;;;;;10286841;28;20064;-67
2021/06/07 19:59:09;;;;;;;18.75;11.77;;;;;;;;;;10288203;28;20036;-67
2021/06/07 20:04:05;;;;;;;17.77;12.48;;;;;;;;;;10278587;28;20124;-67
2021/06/07 20:09:01;;;;;;;18.20;13.32;;;;;;;;;;10277838;28;20695;-67
2021/06/07 20:13:58;;;;;;;16.08;12.55;;;;;;;;;;10277005;28;20077;-67
2021/06/07 20:18:54;;;;;;;15.30;12.88;;;;;;;;;;10269364;28;20045;-67
2021/06/07 20:23:50;;;;;;;18.75;12.20;;;;;;;;;;10277893;28;20160;-67
2021/06/07 20:28:47;;;;;;;18.50;13.35;;;;;;;;;;10290777;28;20479;-67
2021/06/07 20:33:44;;;;;;;14.90;11.60;;;;;;;;;;10287188;28;20132;-67
2021/06/07 20:38:40;;;;;;;14.32;12.82;;;;;;;;;;10289008;28;20072;-66
2021/06/07 20:43:36;;;;;;;18.98;12.88;;;;;;;;;;10291731;28;20132;-67
2021/06/07 20:48:32;;;;;;;19.90;13.20;;;;;;;;;;10264035;28;20106;-67
2021/06/07 20:53:29;;;;;;;19.38;13.40;;;;;;;;;;10283863;28;20037;-67
2021/06/07 20:58:26;;;;;;;15.63;12.73;;;;;;;;;;10279539;28;20152;-67
2021/06/07 21:03:22;;;;;;;14.38;12.43;;;;;;;;;;10283991;28;20040;-67
2021/06/07 21:08:19;;;;;;;15.73;12.02;;;;;;;;;;10271461;28;20041;-67
2021/06/07 21:13:15;;;;;;;16.42;11.27;;;;;;;;;;10276101;28;20099;-67
2021/06/07 21:18:11;;;;;;;15.02;12.00;;;;;;;;;;10284523;28;20103;-67
2021/06/07 21:23:08;;;;;;;18.20;11.95;;;;;;;;;;10279839;28;20503;-67
2021/06/07 21:28:04;;;;;;;16.40;11.90;;;;;;;;;;10263182;28;20084;-67
2021/06/07 21:33:00;;;;;;;14.48;10.55;;;;;;;;;;10254171;28;20036;-67
2021/06/07 21:37:57;;;;;;;13.45;10.52;;;;;;;;;;10267473;28;20581;-67
2021/06/07 21:42:53;;;;;;;15.70;10.73;;;;;;;;;;10279941;28;20048;-67
2021/06/07 21:47:49;;;;;;;18.15;12.80;;;;;;;;;;10281664;28;20082;-67
2021/06/07 21:52:46;;;;;;;16.30;11.00;;;;;;;;;;10282375;28;20036;-67
2021/06/07 21:57:42;;;;;;;15.88;12.45;;;;;;;;;;10267078;28;20095;-67
2021/06/07 22:02:40;;;;;;;12.27;10.48;;;;;;;;;;10249800;28;20125;-67
2021/06/07 22:07:36;;;;;;;11.90;9.80;;;;;;;;;;10275926;28;20403;-67
2021/06/07 22:12:33;;;;;;;15.80;11.05;;;;;;;;;;10265527;28;20041;-67
2021/06/07 22:17:30;;;;;;;11.60;9.63;;;;;;;;;;10276107;28;20040;-67
2021/06/07 22:22:26;;;;;;;11.85;8.30;;;;;;;;;;10262602;28;20100;-67
2021/06/07 22:27:24;;;;;;;8.45;7.20;;;;;;;;;;10278247;28;20693;-67
2021/06/07 22:32:20;;;;;;;10.32;7.43;;;;;;;;;;10267443;28;20040;-67
2021/06/07 22:37:16;;;;;;;8.45;7.10;;;;;;;;;;10283483;28;20506;-67
2021/06/07 22:42:13;;;;;;;11.48;7.25;;;;;;;;;;10272376;28;20105;-66
2021/06/07 22:47:09;;;;;;;11.18;6.53;;;;;;;;;;10284159;28;20489;-67
2021/06/07 22:52:06;;;;;;;8.25;6.38;;;;;;;;;;10279502;28;20567;-66
2021/06/07 22:57:02;;;;;;;7.55;6.28;;;;;;;;;;10270361;28;20519;-67
2021/06/07 23:01:59;;;;;;;8.93;6.35;;;;;;;;;;10274166;28;20510;-66
2021/06/07 23:06:55;;;;;;;8.20;5.53;;;;;;;;;;10272905;28;20104;-66
2021/06/07 23:11:52;;;;;;;9.75;6.30;;;;;;;;;;10268925;28;20041;-67
2021/06/07 23:16:48;;;;;;;7.93;6.63;;;;;;;;;;10273050;28;20496;-66
2021/06/07 23:21:45;;;;;;;7.85;6.32;;;;;;;;;;10287990;28;20100;-66
2021/06/07 23:26:41;;;;;;;11.48;7.90;;;;;;;;;;10288285;28;20131;-67
2021/06/07 23:31:37;;;;;;;9.15;6.57;;;;;;;;;;10276980;28;20124;-66
2021/06/07 23:36:34;;;;;;;8.55;6.60;;;;;;;;;;10299433;28;20049;-67
2021/06/07 23:41:31;;;;;;;9.52;7.30;;;;;;;;;;10285022;28;20036;-67
2021/06/07 23:46:27;;;;;;;9.60;7.70;;;;;;;;;;10285009;28;20603;-66
2021/06/07 23:51:26;;;;;;;7.85;6.45;;;;;;;;;;10282985;28;20044;-66
2021/06/07 23:56:23;;;;;;;9.65;6.43;;;;;;;;;;10282494;28;20069;-67
